Terminal Aerodrome Forecast
Issued by NWS

Home | Current Version | Previous Version | Text Only | Print | Product List | Glossary On
Versions: 1 2 3 4 5 6 7 8 9 10 11 12 13 14 15 16 17 18
000
FTAK31 PAJN 290800 AAB
TAFAGY
TAF AMD
PAGY 290801Z 2908/3006 00000KT 4SM -RA BR SCT004 BKN008 OVC020
      TEMPO 2908/2912 2SM -RA BR OVC004
     FM291200 00000KT P6SM -RA SCT025 OVC050
     FM291800 VRB04KT P6SM -RA OVC050
     FM292100 21008KT P6SM -RA SCT020 BKN040 OVC060
     FM300000 21011KT P6SM -RA SCT025 OVC050
      AMD LTD TO CLD VIS AND WIND=

USA.gov is the U.S. government's official web portal to all federal, state and local government web resources and services.